sensor_id;sensor_type;location;lat;lon;timestamp;P1;durP1;ratioP1;P2;durP2;ratioP2
69434;SDS011;56625;54.322;18.582;2023-07-28T00:00:01;6.10;;;2.00;;
69434;SDS011;56625;54.322;18.582;2023-07-28T00:02:30;7.40;;;2.10;;
69434;SDS011;56625;54.322;18.582;2023-07-28T00:04:58;6.10;;;2.00;;
69434;SDS011;56625;54.322;18.582;2023-07-28T00:07:26;9.00;;;1.80;;
69434;SDS011;56625;54.322;18.582;2023-07-28T00:09:54;6.00;;;1.80;;
69434;SDS011;56625;54.322;18.582;2023-07-28T00:12:22;6.00;;;1.90;;
69434;SDS011;56625;54.322;18.582;2023-07-28T00:14:50;6.40;;;1.70;;
69434;SDS011;56625;54.322;18.582;2023-07-28T00:17:18;9.00;;;1.90;;
69434;SDS011;56625;54.322;18.582;2023-07-28T00:19:46;6.80;;;1.70;;
69434;SDS011;56625;54.322;18.582;2023-07-28T00:22:14;9.10;;;1.90;;
69434;SDS011;56625;54.322;18.582;2023-07-28T00:24:42;5.70;;;1.60;;
69434;SDS011;56625;54.322;18.582;2023-07-28T00:27:09;7.50;;;2.00;;
69434;SDS011;56625;54.322;18.582;2023-07-28T00:29:37;9.10;;;2.00;;
69434;SDS011;56625;54.322;18.582;2023-07-28T00:32:05;7.40;;;2.10;;
69434;SDS011;56625;54.322;18.582;2023-07-28T00:34:34;5.70;;;1.80;;
69434;SDS011;56625;54.322;18.582;2023-07-28T00:37:01;6.70;;;1.60;;
69434;SDS011;56625;54.322;18.582;2023-07-28T00:39:29;6.70;;;2.00;;
69434;SDS011;56625;54.322;18.582;2023-07-28T00:41:57;6.70;;;1.70;;
69434;SDS011;56625;54.322;18.582;2023-07-28T00:44:25;6.60;;;2.00;;
69434;SDS011;56625;54.322;18.582;2023-07-28T00:46:53;5.70;;;1.60;;
69434;SDS011;56625;54.322;18.582;2023-07-28T00:49:21;7.80;;;1.70;;
69434;SDS011;56625;54.322;18.582;2023-07-28T00:51:49;5.40;;;1.90;;
69434;SDS011;56625;54.322;18.582;2023-07-28T00:54:19;8.20;;;2.20;;
69434;SDS011;56625;54.322;18.582;2023-07-28T00:56:47;8.90;;;2.20;;
69434;SDS011;56625;54.322;18.582;2023-07-28T00:59:16;6.90;;;1.90;;
69434;SDS011;56625;54.322;18.582;2023-07-28T01:01:44;6.60;;;2.10;;
69434;SDS011;56625;54.322;18.582;2023-07-28T01:04:12;6.00;;;2.00;;
69434;SDS011;56625;54.322;18.582;2023-07-28T01:07:00;7.10;;;2.10;;
69434;SDS011;56625;54.322;18.582;2023-07-28T01:09:50;8.80;;;1.90;;
69434;SDS011;56625;54.322;18.582;2023-07-28T01:12:23;5.10;;;1.60;;
69434;SDS011;56625;54.322;18.582;2023-07-28T01:14:51;6.40;;;1.80;;
69434;SDS011;56625;54.322;18.582;2023-07-28T01:17:19;7.10;;;2.00;;
69434;SDS011;56625;54.322;18.582;2023-07-28T01:19:51;8.30;;;2.00;;
69434;SDS011;56625;54.322;18.582;2023-07-28T01:23:08;5.70;;;2.00;;
69434;SDS011;56625;54.322;18.582;2023-07-28T01:28:28;6.90;;;1.60;;
69434;SDS011;56625;54.322;18.582;2023-07-28T01:30:57;6.60;;;2.00;;
69434;SDS011;56625;54.322;18.582;2023-07-28T01:33:25;7.20;;;1.60;;
69434;SDS011;56625;54.322;18.582;2023-07-28T01:35:53;5.70;;;1.70;;
69434;SDS011;56625;54.322;18.582;2023-07-28T01:38:21;6.00;;;1.80;;
69434;SDS011;56625;54.322;18.582;2023-07-28T01:40:49;6.60;;;2.00;;
69434;SDS011;56625;54.322;18.582;2023-07-28T01:43:17;7.80;;;2.30;;
69434;SDS011;56625;54.322;18.582;2023-07-28T01:45:45;5.60;;;2.00;;
69434;SDS011;56625;54.322;18.582;2023-07-28T01:48:13;6.60;;;1.90;;
69434;SDS011;56625;54.322;18.582;2023-07-28T01:50:41;6.70;;;2.10;;
69434;SDS011;56625;54.322;18.582;2023-07-28T01:53:10;6.70;;;2.30;;
69434;SDS011;56625;54.322;18.582;2023-07-28T01:55:38;6.30;;;2.10;;
69434;SDS011;56625;54.322;18.582;2023-07-28T01:58:06;6.60;;;2.20;;
69434;SDS011;56625;54.322;18.582;2023-07-28T02:00:34;8.10;;;2.20;;
69434;SDS011;56625;54.322;18.582;2023-07-28T02:03:02;7.30;;;2.20;;
69434;SDS011;56625;54.322;18.582;2023-07-28T02:05:32;7.50;;;2.70;;
69434;SDS011;56625;54.322;18.582;2023-07-28T02:08:00;7.60;;;2.40;;
69434;SDS011;56625;54.322;18.582;2023-07-28T02:10:28;7.50;;;2.70;;
69434;SDS011;56625;54.322;18.582;2023-07-28T02:12:57;6.20;;;2.50;;
69434;SDS011;56625;54.322;18.582;2023-07-28T02:15:25;6.60;;;2.40;;
69434;SDS011;56625;54.322;18.582;2023-07-28T02:17:53;9.00;;;2.40;;
69434;SDS011;56625;54.322;18.582;2023-07-28T02:20:21;7.00;;;2.50;;
69434;SDS011;56625;54.322;18.582;2023-07-28T02:22:49;7.10;;;2.50;;
69434;SDS011;56625;54.322;18.582;2023-07-28T02:25:17;7.70;;;2.60;;
69434;SDS011;56625;54.322;18.582;2023-07-28T02:27:45;7.30;;;2.50;;
69434;SDS011;56625;54.322;18.582;2023-07-28T02:30:14;10.30;;;2.80;;
69434;SDS011;56625;54.322;18.582;2023-07-28T02:32:42;8.30;;;2.50;;
69434;SDS011;56625;54.322;18.582;2023-07-28T02:35:13;8.00;;;2.30;;
69434;SDS011;56625;54.322;18.582;2023-07-28T02:37:41;7.80;;;2.60;;
69434;SDS011;56625;54.322;18.582;2023-07-28T02:40:10;7.00;;;2.60;;
69434;SDS011;56625;54.322;18.582;2023-07-28T02:42:39;8.70;;;3.10;;
69434;SDS011;56625;54.322;18.582;2023-07-28T02:45:07;7.30;;;2.90;;
69434;SDS011;56625;54.322;18.582;2023-07-28T02:47:35;7.70;;;2.60;;
69434;SDS011;56625;54.322;18.582;2023-07-28T02:50:04;6.60;;;2.40;;
69434;SDS011;56625;54.322;18.582;2023-07-28T02:52:32;7.10;;;2.30;;
69434;SDS011;56625;54.322;18.582;2023-07-28T02:55:00;8.40;;;2.50;;
69434;SDS011;56625;54.322;18.582;2023-07-28T02:57:28;9.80;;;2.70;;
69434;SDS011;56625;54.322;18.582;2023-07-28T02:59:56;8.00;;;2.70;;
69434;SDS011;56625;54.322;18.582;2023-07-28T03:02:24;7.60;;;2.70;;
69434;SDS011;56625;54.322;18.582;2023-07-28T03:04:52;8.20;;;2.80;;
69434;SDS011;56625;54.322;18.582;2023-07-28T03:07:20;9.00;;;3.10;;
69434;SDS011;56625;54.322;18.582;2023-07-28T03:09:48;7.80;;;2.80;;
69434;SDS011;56625;54.322;18.582;2023-07-28T03:12:15;8.50;;;3.00;;
69434;SDS011;56625;54.322;18.582;2023-07-28T03:14:43;7.00;;;2.60;;
69434;SDS011;56625;54.322;18.582;2023-07-28T03:17:11;8.10;;;2.80;;
69434;SDS011;56625;54.322;18.582;2023-07-28T03:19:39;8.10;;;3.00;;
69434;SDS011;56625;54.322;18.582;2023-07-28T03:22:07;9.80;;;3.40;;
69434;SDS011;56625;54.322;18.582;2023-07-28T03:24:35;10.20;;;3.10;;
69434;SDS011;56625;54.322;18.582;2023-07-28T03:27:03;7.60;;;2.90;;
69434;SDS011;56625;54.322;18.582;2023-07-28T03:29:31;8.90;;;3.60;;
69434;SDS011;56625;54.322;18.582;2023-07-28T03:31:59;12.40;;;3.20;;
69434;SDS011;56625;54.322;18.582;2023-07-28T03:34:27;8.20;;;3.00;;
69434;SDS011;56625;54.322;18.582;2023-07-28T03:36:55;8.20;;;2.90;;
69434;SDS011;56625;54.322;18.582;2023-07-28T03:39:23;7.60;;;2.80;;
69434;SDS011;56625;54.322;18.582;2023-07-28T03:41:51;7.50;;;2.60;;
69434;SDS011;56625;54.322;18.582;2023-07-28T03:44:19;6.60;;;2.50;;
69434;SDS011;56625;54.322;18.582;2023-07-28T03:46:47;8.30;;;2.60;;
69434;SDS011;56625;54.322;18.582;2023-07-28T03:49:15;7.20;;;2.70;;
69434;SDS011;56625;54.322;18.582;2023-07-28T03:51:43;7.30;;;2.80;;
69434;SDS011;56625;54.322;18.582;2023-07-28T03:54:11;8.10;;;2.40;;
69434;SDS011;56625;54.322;18.582;2023-07-28T03:56:39;7.30;;;2.40;;
69434;SDS011;56625;54.322;18.582;2023-07-28T03:59:07;7.00;;;2.40;;
69434;SDS011;56625;54.322;18.582;2023-07-28T04:01:35;7.70;;;2.50;;
69434;SDS011;56625;54.322;18.582;2023-07-28T04:04:03;8.50;;;2.60;;
69434;SDS011;56625;54.322;18.582;2023-07-28T04:06:40;8.10;;;2.70;;
69434;SDS011;56625;54.322;18.582;2023-07-28T04:09:09;8.40;;;2.80;;
69434;SDS011;56625;54.322;18.582;2023-07-28T04:11:39;8.50;;;2.70;;
69434;SDS011;56625;54.322;18.582;2023-07-28T04:14:07;7.50;;;2.50;;
69434;SDS011;56625;54.322;18.582;2023-07-28T04:16:35;7.00;;;2.80;;
69434;SDS011;56625;54.322;18.582;2023-07-28T04:19:04;8.60;;;2.80;;
69434;SDS011;56625;54.322;18.582;2023-07-28T04:21:32;8.20;;;2.80;;
69434;SDS011;56625;54.322;18.582;2023-07-28T04:24:00;7.90;;;2.60;;
69434;SDS011;56625;54.322;18.582;2023-07-28T04:26:28;7.50;;;3.00;;
69434;SDS011;56625;54.322;18.582;2023-07-28T04:28:56;8.10;;;2.80;;
69434;SDS011;56625;54.322;18.582;2023-07-28T04:31:24;8.90;;;2.70;;
69434;SDS011;56625;54.322;18.582;2023-07-28T04:33:52;9.30;;;2.90;;
69434;SDS011;56625;54.322;18.582;2023-07-28T04:36:20;7.40;;;3.00;;
69434;SDS011;56625;54.322;18.582;2023-07-28T04:38:48;7.50;;;2.60;;
69434;SDS011;56625;54.322;18.582;2023-07-28T04:41:16;6.90;;;2.60;;
69434;SDS011;56625;54.322;18.582;2023-07-28T04:43:44;7.80;;;2.40;;
69434;SDS011;56625;54.322;18.582;2023-07-28T04:46:12;6.60;;;2.60;;
69434;SDS011;56625;54.322;18.582;2023-07-28T04:48:40;8.50;;;2.90;;
69434;SDS011;56625;54.322;18.582;2023-07-28T04:51:08;8.90;;;2.60;;
69434;SDS011;56625;54.322;18.582;2023-07-28T04:53:35;7.00;;;2.50;;
69434;SDS011;56625;54.322;18.582;2023-07-28T04:56:03;8.20;;;2.80;;
69434;SDS011;56625;54.322;18.582;2023-07-28T04:58:31;8.00;;;2.90;;
69434;SDS011;56625;54.322;18.582;2023-07-28T05:00:59;6.90;;;2.70;;
69434;SDS011;56625;54.322;18.582;2023-07-28T05:03:29;7.70;;;2.70;;
69434;SDS011;56625;54.322;18.582;2023-07-28T05:05:57;8.40;;;3.00;;
69434;SDS011;56625;54.322;18.582;2023-07-28T05:08:25;9.60;;;2.80;;
69434;SDS011;56625;54.322;18.582;2023-07-28T05:10:53;7.20;;;2.60;;
69434;SDS011;56625;54.322;18.582;2023-07-28T05:13:21;8.10;;;2.60;;
69434;SDS011;56625;54.322;18.582;2023-07-28T05:15:49;7.30;;;2.70;;
69434;SDS011;56625;54.322;18.582;2023-07-28T05:18:17;9.00;;;3.10;;
69434;SDS011;56625;54.322;18.582;2023-07-28T05:20:45;8.50;;;2.80;;
69434;SDS011;56625;54.322;18.582;2023-07-28T05:23:13;10.70;;;3.00;;
69434;SDS011;56625;54.322;18.582;2023-07-28T05:25:41;8.20;;;2.60;;
69434;SDS011;56625;54.322;18.582;2023-07-28T05:28:09;7.30;;;2.90;;
69434;SDS011;56625;54.322;18.582;2023-07-28T05:30:37;6.40;;;2.70;;
69434;SDS011;56625;54.322;18.582;2023-07-28T05:33:05;9.40;;;3.00;;
69434;SDS011;56625;54.322;18.582;2023-07-28T05:35:33;10.90;;;3.00;;
69434;SDS011;56625;54.322;18.582;2023-07-28T05:38:01;9.90;;;3.00;;
69434;SDS011;56625;54.322;18.582;2023-07-28T05:40:28;11.60;;;2.70;;
69434;SDS011;56625;54.322;18.582;2023-07-28T05:42:56;12.90;;;2.70;;
69434;SDS011;56625;54.322;18.582;2023-07-28T05:45:24;11.10;;;3.20;;
69434;SDS011;56625;54.322;18.582;2023-07-28T05:47:52;8.40;;;2.70;;
69434;SDS011;56625;54.322;18.582;2023-07-28T05:50:20;10.70;;;3.20;;
69434;SDS011;56625;54.322;18.582;2023-07-28T05:52:49;8.60;;;2.90;;
69434;SDS011;56625;54.322;18.582;2023-07-28T05:55:16;6.90;;;2.90;;
69434;SDS011;56625;54.322;18.582;2023-07-28T05:57:44;8.70;;;3.10;;
69434;SDS011;56625;54.322;18.582;2023-07-28T06:00:12;8.80;;;3.10;;
69434;SDS011;56625;54.322;18.582;2023-07-28T06:02:40;8.50;;;3.20;;
69434;SDS011;56625;54.322;18.582;2023-07-28T06:05:09;9.20;;;3.30;;
69434;SDS011;56625;54.322;18.582;2023-07-28T06:07:37;9.20;;;3.40;;
69434;SDS011;56625;54.322;18.582;2023-07-28T06:10:05;8.90;;;3.20;;
69434;SDS011;56625;54.322;18.582;2023-07-28T06:12:34;8.60;;;3.40;;
69434;SDS011;56625;54.322;18.582;2023-07-28T06:15:15;11.50;;;3.30;;
69434;SDS011;56625;54.322;18.582;2023-07-28T06:17:43;8.90;;;3.80;;
69434;SDS011;56625;54.322;18.582;2023-07-28T06:20:11;10.70;;;3.30;;
69434;SDS011;56625;54.322;18.582;2023-07-28T06:22:39;8.50;;;3.10;;
69434;SDS011;56625;54.322;18.582;2023-07-28T06:25:07;9.20;;;3.60;;
69434;SDS011;56625;54.322;18.582;2023-07-28T06:27:35;9.70;;;2.80;;
69434;SDS011;56625;54.322;18.582;2023-07-28T06:30:04;8.40;;;3.10;;
69434;SDS011;56625;54.322;18.582;2023-07-28T06:32:33;7.20;;;2.60;;
69434;SDS011;56625;54.322;18.582;2023-07-28T06:35:01;6.80;;;2.50;;
69434;SDS011;56625;54.322;18.582;2023-07-28T06:37:30;9.60;;;3.10;;
69434;SDS011;56625;54.322;18.582;2023-07-28T06:39:59;9.10;;;3.20;;
69434;SDS011;56625;54.322;18.582;2023-07-28T06:42:27;7.50;;;2.90;;
69434;SDS011;56625;54.322;18.582;2023-07-28T06:44:55;7.20;;;3.10;;
69434;SDS011;56625;54.322;18.582;2023-07-28T06:47:24;7.00;;;3.10;;
69434;SDS011;56625;54.322;18.582;2023-07-28T06:49:52;9.20;;;3.50;;
69434;SDS011;56625;54.322;18.582;2023-07-28T06:52:20;9.00;;;3.60;;
69434;SDS011;56625;54.322;18.582;2023-07-28T06:54:49;8.30;;;2.90;;
69434;SDS011;56625;54.322;18.582;2023-07-28T06:57:17;9.10;;;3.20;;
69434;SDS011;56625;54.322;18.582;2023-07-28T06:59:45;10.40;;;3.60;;
69434;SDS011;56625;54.322;18.582;2023-07-28T07:02:13;9.10;;;3.10;;
69434;SDS011;56625;54.322;18.582;2023-07-28T07:04:41;8.20;;;3.30;;
69434;SDS011;56625;54.322;18.582;2023-07-28T07:07:10;7.30;;;3.60;;
69434;SDS011;56625;54.322;18.582;2023-07-28T07:09:38;8.60;;;3.20;;
69434;SDS011;56625;54.322;18.582;2023-07-28T07:12:08;7.30;;;3.50;;
69434;SDS011;56625;54.322;18.582;2023-07-28T07:14:37;9.70;;;3.60;;
69434;SDS011;56625;54.322;18.582;2023-07-28T07:17:06;10.00;;;3.40;;
69434;SDS011;56625;54.322;18.582;2023-07-28T07:19:34;8.60;;;3.30;;
69434;SDS011;56625;54.322;18.582;2023-07-28T07:22:03;10.00;;;3.10;;
69434;SDS011;56625;54.322;18.582;2023-07-28T07:24:31;9.40;;;3.10;;
69434;SDS011;56625;54.322;18.582;2023-07-28T07:27:00;9.50;;;3.40;;
69434;SDS011;56625;54.322;18.582;2023-07-28T07:29:28;9.10;;;3.40;;
69434;SDS011;56625;54.322;18.582;2023-07-28T07:31:56;11.20;;;3.70;;
69434;SDS011;56625;54.322;18.582;2023-07-28T07:34:26;11.00;;;3.60;;
69434;SDS011;56625;54.322;18.582;2023-07-28T07:36:56;9.10;;;3.20;;
69434;SDS011;56625;54.322;18.582;2023-07-28T07:39:24;10.20;;;3.60;;
69434;SDS011;56625;54.322;18.582;2023-07-28T07:41:53;10.50;;;3.30;;
69434;SDS011;56625;54.322;18.582;2023-07-28T07:44:21;7.60;;;3.30;;
69434;SDS011;56625;54.322;18.582;2023-07-28T07:46:49;10.80;;;3.50;;
69434;SDS011;56625;54.322;18.582;2023-07-28T07:49:17;9.40;;;3.30;;
69434;SDS011;56625;54.322;18.582;2023-07-28T07:51:45;9.10;;;3.30;;
69434;SDS011;56625;54.322;18.582;2023-07-28T07:54:13;10.60;;;3.70;;
69434;SDS011;56625;54.322;18.582;2023-07-28T07:56:44;8.20;;;3.20;;
69434;SDS011;56625;54.322;18.582;2023-07-28T07:59:14;7.60;;;3.30;;
69434;SDS011;56625;54.322;18.582;2023-07-28T08:01:42;9.10;;;3.10;;
69434;SDS011;56625;54.322;18.582;2023-07-28T08:04:10;8.50;;;3.20;;
69434;SDS011;56625;54.322;18.582;2023-07-28T08:06:38;7.90;;;3.00;;
69434;SDS011;56625;54.322;18.582;2023-07-28T08:09:06;8.00;;;3.20;;
69434;SDS011;56625;54.322;18.582;2023-07-28T08:11:34;8.00;;;3.20;;
69434;SDS011;56625;54.322;18.582;2023-07-28T08:14:03;8.70;;;3.30;;
69434;SDS011;56625;54.322;18.582;2023-07-28T08:16:30;7.30;;;3.20;;
69434;SDS011;56625;54.322;18.582;2023-07-28T08:18:59;6.80;;;3.00;;
69434;SDS011;56625;54.322;18.582;2023-07-28T08:21:27;8.20;;;2.80;;
69434;SDS011;56625;54.322;18.582;2023-07-28T08:23:54;7.10;;;2.80;;
69434;SDS011;56625;54.322;18.582;2023-07-28T08:26:23;6.60;;;2.90;;
69434;SDS011;56625;54.322;18.582;2023-07-28T08:28:51;6.50;;;2.70;;
69434;SDS011;56625;54.322;18.582;2023-07-28T08:31:19;5.60;;;2.40;;
69434;SDS011;56625;54.322;18.582;2023-07-28T08:33:47;7.00;;;2.70;;
69434;SDS011;56625;54.322;18.582;2023-07-28T08:36:15;6.40;;;2.70;;
69434;SDS011;56625;54.322;18.582;2023-07-28T08:38:43;5.20;;;2.30;;
69434;SDS011;56625;54.322;18.582;2023-07-28T08:41:13;7.40;;;2.40;;
69434;SDS011;56625;54.322;18.582;2023-07-28T08:43:42;8.70;;;2.50;;
69434;SDS011;56625;54.322;18.582;2023-07-28T08:46:12;7.00;;;2.20;;
69434;SDS011;56625;54.322;18.582;2023-07-28T08:48:41;6.50;;;2.40;;
69434;SDS011;56625;54.322;18.582;2023-07-28T08:51:10;6.00;;;2.50;;
69434;SDS011;56625;54.322;18.582;2023-07-28T08:53:40;8.10;;;3.10;;
69434;SDS011;56625;54.322;18.582;2023-07-28T08:56:08;6.40;;;2.60;;
69434;SDS011;56625;54.322;18.582;2023-07-28T08:58:36;6.70;;;2.70;;
69434;SDS011;56625;54.322;18.582;2023-07-28T09:01:05;8.00;;;3.20;;
69434;SDS011;56625;54.322;18.582;2023-07-28T09:03:44;8.40;;;3.10;;
69434;SDS011;56625;54.322;18.582;2023-07-28T09:06:17;7.80;;;2.70;;
69434;SDS011;56625;54.322;18.582;2023-07-28T09:08:46;7.90;;;3.00;;
69434;SDS011;56625;54.322;18.582;2023-07-28T09:11:14;7.60;;;3.10;;
69434;SDS011;56625;54.322;18.582;2023-07-28T09:13:42;11.10;;;3.30;;
69434;SDS011;56625;54.322;18.582;2023-07-28T09:16:20;7.50;;;3.30;;
69434;SDS011;56625;54.322;18.582;2023-07-28T09:18:50;9.80;;;3.50;;
69434;SDS011;56625;54.322;18.582;2023-07-28T09:21:20;10.60;;;3.50;;
69434;SDS011;56625;54.322;18.582;2023-07-28T09:23:49;11.90;;;3.50;;
69434;SDS011;56625;54.322;18.582;2023-07-28T09:26:17;9.20;;;3.80;;
69434;SDS011;56625;54.322;18.582;2023-07-28T09:28:46;7.70;;;3.40;;
69434;SDS011;56625;54.322;18.582;2023-07-28T09:31:14;8.30;;;3.40;;
69434;SDS011;56625;54.322;18.582;2023-07-28T09:33:42;8.30;;;3.40;;
69434;SDS011;56625;54.322;18.582;2023-07-28T09:36:15;8.20;;;4.00;;
69434;SDS011;56625;54.322;18.582;2023-07-28T09:38:44;10.70;;;3.70;;
69434;SDS011;56625;54.322;18.582;2023-07-28T09:41:14;8.60;;;3.80;;
69434;SDS011;56625;54.322;18.582;2023-07-28T09:43:42;11.20;;;3.60;;
69434;SDS011;56625;54.322;18.582;2023-07-28T09:46:13;9.20;;;4.10;;
69434;SDS011;56625;54.322;18.582;2023-07-28T09:48:45;8.70;;;3.70;;
69434;SDS011;56625;54.322;18.582;2023-07-28T09:51:19;7.50;;;3.60;;
69434;SDS011;56625;54.322;18.582;2023-07-28T09:53:53;9.90;;;4.20;;
69434;SDS011;56625;54.322;18.582;2023-07-28T09:56:32;8.40;;;3.80;;
69434;SDS011;56625;54.322;18.582;2023-07-28T09:59:02;8.80;;;4.30;;
69434;SDS011;56625;54.322;18.582;2023-07-28T10:01:36;9.80;;;4.30;;
69434;SDS011;56625;54.322;18.582;2023-07-28T10:04:05;9.10;;;3.90;;
69434;SDS011;56625;54.322;18.582;2023-07-28T10:06:34;10.30;;;4.40;;
69434;SDS011;56625;54.322;18.582;2023-07-28T10:09:03;8.80;;;4.00;;
69434;SDS011;56625;54.322;18.582;2023-07-28T10:11:33;9.90;;;4.40;;
69434;SDS011;56625;54.322;18.582;2023-07-28T10:14:02;9.90;;;4.80;;
69434;SDS011;56625;54.322;18.582;2023-07-28T10:16:37;9.10;;;4.10;;
69434;SDS011;56625;54.322;18.582;2023-07-28T10:19:07;8.90;;;4.20;;
69434;SDS011;56625;54.322;18.582;2023-07-28T10:21:40;10.00;;;4.40;;
69434;SDS011;56625;54.322;18.582;2023-07-28T10:24:11;9.20;;;4.20;;
69434;SDS011;56625;54.322;18.582;2023-07-28T10:26:40;8.70;;;4.40;;
69434;SDS011;56625;54.322;18.582;2023-07-28T10:29:13;8.70;;;4.20;;
69434;SDS011;56625;54.322;18.582;2023-07-28T10:32:09;8.20;;;3.90;;
69434;SDS011;56625;54.322;18.582;2023-07-28T10:35:06;8.50;;;4.00;;
69434;SDS011;56625;54.322;18.582;2023-07-28T10:38:33;9.10;;;4.20;;
69434;SDS011;56625;54.322;18.582;2023-07-28T10:41:17;10.20;;;4.50;;
69434;SDS011;56625;54.322;18.582;2023-07-28T10:43:46;9.40;;;4.40;;
69434;SDS011;56625;54.322;18.582;2023-07-28T10:46:16;7.90;;;4.00;;
69434;SDS011;56625;54.322;18.582;2023-07-28T10:48:46;7.60;;;4.00;;
69434;SDS011;56625;54.322;18.582;2023-07-28T10:51:26;8.40;;;3.90;;
69434;SDS011;56625;54.322;18.582;2023-07-28T10:54:01;10.00;;;4.10;;
69434;SDS011;56625;54.322;18.582;2023-07-28T10:56:32;9.20;;;4.10;;
69434;SDS011;56625;54.322;18.582;2023-07-28T10:59:04;8.60;;;4.10;;
69434;SDS011;56625;54.322;18.582;2023-07-28T11:01:35;8.20;;;3.80;;
69434;SDS011;56625;54.322;18.582;2023-07-28T11:04:11;7.90;;;3.80;;
69434;SDS011;56625;54.322;18.582;2023-07-28T11:06:45;11.60;;;4.90;;
69434;SDS011;56625;54.322;18.582;2023-07-28T11:09:21;9.50;;;3.70;;
69434;SDS011;56625;54.322;18.582;2023-07-28T11:11:51;7.60;;;3.70;;
69434;SDS011;56625;54.322;18.582;2023-07-28T11:14:19;7.10;;;3.90;;
69434;SDS011;56625;54.322;18.582;2023-07-28T11:16:48;7.30;;;3.70;;
69434;SDS011;56625;54.322;18.582;2023-07-28T11:19:18;8.10;;;3.50;;
69434;SDS011;56625;54.322;18.582;2023-07-28T11:21:54;9.10;;;3.70;;
69434;SDS011;56625;54.322;18.582;2023-07-28T11:24:23;7.40;;;3.40;;
69434;SDS011;56625;54.322;18.582;2023-07-28T11:26:52;8.20;;;3.90;;
69434;SDS011;56625;54.322;18.582;2023-07-28T11:29:20;9.30;;;3.30;;
69434;SDS011;56625;54.322;18.582;2023-07-28T11:31:49;7.80;;;3.70;;
69434;SDS011;56625;54.322;18.582;2023-07-28T11:34:18;8.20;;;3.80;;
69434;SDS011;56625;54.322;18.582;2023-07-28T11:36:46;7.20;;;3.70;;
69434;SDS011;56625;54.322;18.582;2023-07-28T11:39:16;7.30;;;3.60;;
69434;SDS011;56625;54.322;18.582;2023-07-28T11:41:44;7.80;;;3.50;;
69434;SDS011;56625;54.322;18.582;2023-07-28T11:44:16;9.10;;;3.70;;
69434;SDS011;56625;54.322;18.582;2023-07-28T11:46:44;8.70;;;3.80;;
69434;SDS011;56625;54.322;18.582;2023-07-28T11:49:20;8.40;;;3.40;;
69434;SDS011;56625;54.322;18.582;2023-07-28T11:51:54;7.80;;;3.80;;
69434;SDS011;56625;54.322;18.582;2023-07-28T11:54:25;6.90;;;3.40;;
69434;SDS011;56625;54.322;18.582;2023-07-28T11:56:57;8.40;;;3.30;;
69434;SDS011;56625;54.322;18.582;2023-07-28T11:59:25;8.40;;;3.90;;
69434;SDS011;56625;54.322;18.582;2023-07-28T12:02:03;7.60;;;4.00;;
69434;SDS011;56625;54.322;18.582;2023-07-28T12:04:39;7.60;;;3.70;;
69434;SDS011;56625;54.322;18.582;2023-07-28T12:07:17;8.50;;;4.00;;
69434;SDS011;56625;54.322;18.582;2023-07-28T12:12:13;8.70;;;4.10;;
69434;SDS011;56625;54.322;18.582;2023-07-28T12:14:45;8.10;;;3.70;;
69434;SDS011;56625;54.322;18.582;2023-07-28T12:17:38;7.70;;;3.90;;
69434;SDS011;56625;54.322;18.582;2023-07-28T12:20:10;7.40;;;3.50;;
69434;SDS011;56625;54.322;18.582;2023-07-28T12:22:43;7.20;;;3.70;;
69434;SDS011;56625;54.322;18.582;2023-07-28T12:25:12;6.80;;;3.40;;
69434;SDS011;56625;54.322;18.582;2023-07-28T12:27:40;8.70;;;4.00;;
69434;SDS011;56625;54.322;18.582;2023-07-28T12:30:08;7.20;;;3.50;;
69434;SDS011;56625;54.322;18.582;2023-07-28T12:32:41;7.90;;;3.50;;
69434;SDS011;56625;54.322;18.582;2023-07-28T12:35:29;7.70;;;3.80;;
69434;SDS011;56625;54.322;18.582;2023-07-28T12:38:03;8.40;;;3.80;;
69434;SDS011;56625;54.322;18.582;2023-07-28T12:40:52;10.00;;;3.70;;
69434;SDS011;56625;54.322;18.582;2023-07-28T12:43:23;11.00;;;4.10;;
69434;SDS011;56625;54.322;18.582;2023-07-28T12:45:56;9.10;;;4.00;;
69434;SDS011;56625;54.322;18.582;2023-07-28T12:48:27;8.30;;;3.80;;
69434;SDS011;56625;54.322;18.582;2023-07-28T12:50:55;7.20;;;4.00;;
69434;SDS011;56625;54.322;18.582;2023-07-28T12:53:26;8.60;;;3.60;;
69434;SDS011;56625;54.322;18.582;2023-07-28T12:55:54;9.30;;;3.80;;
69434;SDS011;56625;54.322;18.582;2023-07-28T12:58:25;9.00;;;4.10;;
69434;SDS011;56625;54.322;18.582;2023-07-28T13:00:56;9.80;;;4.30;;
69434;SDS011;56625;54.322;18.582;2023-07-28T13:03:28;9.10;;;4.10;;
69434;SDS011;56625;54.322;18.582;2023-07-28T13:05:56;9.40;;;4.10;;
69434;SDS011;56625;54.322;18.582;2023-07-28T13:08:24;8.50;;;4.10;;
69434;SDS011;56625;54.322;18.582;2023-07-28T13:10:55;8.30;;;4.00;;
69434;SDS011;56625;54.322;18.582;2023-07-28T13:13:26;9.00;;;4.40;;
69434;SDS011;56625;54.322;18.582;2023-07-28T13:15:57;11.20;;;3.70;;
69434;SDS011;56625;54.322;18.582;2023-07-28T13:18:25;8.50;;;4.00;;
69434;SDS011;56625;54.322;18.582;2023-07-28T13:20:53;8.10;;;3.50;;
69434;SDS011;56625;54.322;18.582;2023-07-28T13:23:21;12.00;;;3.80;;
69434;SDS011;56625;54.322;18.582;2023-07-28T13:25:50;8.50;;;3.80;;
69434;SDS011;56625;54.322;18.582;2023-07-28T13:28:18;7.50;;;3.40;;
69434;SDS011;56625;54.322;18.582;2023-07-28T13:30:46;8.80;;;3.40;;
69434;SDS011;56625;54.322;18.582;2023-07-28T13:33:14;9.20;;;3.60;;
69434;SDS011;56625;54.322;18.582;2023-07-28T13:35:43;8.20;;;3.70;;
69434;SDS011;56625;54.322;18.582;2023-07-28T13:38:11;8.40;;;3.90;;
69434;SDS011;56625;54.322;18.582;2023-07-28T13:40:39;8.70;;;3.70;;
69434;SDS011;56625;54.322;18.582;2023-07-28T13:43:06;9.20;;;3.80;;
69434;SDS011;56625;54.322;18.582;2023-07-28T13:45:34;7.70;;;3.90;;
69434;SDS011;56625;54.322;18.582;2023-07-28T13:48:02;8.50;;;4.00;;
69434;SDS011;56625;54.322;18.582;2023-07-28T13:50:31;7.00;;;3.60;;
69434;SDS011;56625;54.322;18.582;2023-07-28T13:53:02;7.50;;;3.70;;
69434;SDS011;56625;54.322;18.582;2023-07-28T13:55:33;7.70;;;3.50;;
69434;SDS011;56625;54.322;18.582;2023-07-28T13:58:04;7.60;;;3.70;;
69434;SDS011;56625;54.322;18.582;2023-07-28T14:00:32;6.50;;;3.30;;
69434;SDS011;56625;54.322;18.582;2023-07-28T14:03:00;8.50;;;3.60;;
69434;SDS011;56625;54.322;18.582;2023-07-28T14:05:28;8.30;;;3.90;;
69434;SDS011;56625;54.322;18.582;2023-07-28T14:07:56;8.80;;;3.60;;
69434;SDS011;56625;54.322;18.582;2023-07-28T14:10:24;8.90;;;3.90;;
69434;SDS011;56625;54.322;18.582;2023-07-28T14:12:52;8.70;;;4.20;;
69434;SDS011;56625;54.322;18.582;2023-07-28T14:15:20;8.40;;;3.70;;
69434;SDS011;56625;54.322;18.582;2023-07-28T14:17:48;9.60;;;4.50;;
69434;SDS011;56625;54.322;18.582;2023-07-28T14:20:16;8.80;;;4.60;;
69434;SDS011;56625;54.322;18.582;2023-07-28T14:22:44;10.20;;;3.80;;
69434;SDS011;56625;54.322;18.582;2023-07-28T14:25:12;7.80;;;4.40;;
69434;SDS011;56625;54.322;18.582;2023-07-28T14:27:40;9.70;;;4.60;;
69434;SDS011;56625;54.322;18.582;2023-07-28T14:30:08;9.50;;;4.70;;
69434;SDS011;56625;54.322;18.582;2023-07-28T14:32:36;8.90;;;3.90;;
69434;SDS011;56625;54.322;18.582;2023-07-28T14:35:04;9.60;;;4.20;;
69434;SDS011;56625;54.322;18.582;2023-07-28T14:37:32;11.00;;;4.10;;
69434;SDS011;56625;54.322;18.582;2023-07-28T14:40:00;8.40;;;3.90;;
69434;SDS011;56625;54.322;18.582;2023-07-28T14:42:28;8.20;;;4.10;;
69434;SDS011;56625;54.322;18.582;2023-07-28T14:44:56;11.70;;;4.10;;
69434;SDS011;56625;54.322;18.582;2023-07-28T14:47:24;8.30;;;3.50;;
69434;SDS011;56625;54.322;18.582;2023-07-28T14:49:53;7.70;;;3.40;;
69434;SDS011;56625;54.322;18.582;2023-07-28T14:52:20;8.60;;;3.90;;